createdAt,value
2019-05-15T00:02:18.458Z,15.10
2019-05-15T00:04:49.164Z,15.20
2019-05-15T00:07:18.423Z,15.10
2019-05-15T00:09:49.227Z,15.10
2019-05-15T00:12:18.944Z,15.10
2019-05-15T00:14:48.568Z,15.10
2019-05-15T00:17:19.246Z,15.00
2019-05-15T00:19:48.682Z,15.00
2019-05-15T00:22:18.336Z,15.00
2019-05-15T00:24:48.893Z,15.00
2019-05-15T00:27:20.166Z,14.90
2019-05-15T00:29:49.025Z,14.90
2019-05-15T00:32:18.598Z,14.80
2019-05-15T00:34:48.826Z,14.80
2019-05-15T00:37:18.303Z,14.80
2019-05-15T00:39:48.605Z,14.80
2019-05-15T00:42:19.044Z,14.80
2019-05-15T00:44:49.379Z,14.90
2019-05-15T00:47:18.661Z,14.80
2019-05-15T00:49:48.766Z,14.80
2019-05-15T00:52:18.857Z,14.80
2019-05-15T00:54:48.525Z,14.80
2019-05-15T00:57:19.203Z,14.80
2019-05-15T00:59:48.569Z,14.80
2019-05-15T01:02:17.897Z,14.80
2019-05-15T01:04:47.977Z,14.80
2019-05-15T01:07:18.830Z,14.80
2019-05-15T01:09:48.670Z,14.70
2019-05-15T01:12:18.618Z,14.70
2019-05-15T01:14:48.969Z,14.70
2019-05-15T01:17:18.538Z,14.70
2019-05-15T01:19:48.184Z,14.70
2019-05-15T01:22:19.485Z,14.70
2019-05-15T01:24:48.615Z,14.70
2019-05-15T01:27:18.434Z,14.70
2019-05-15T01:29:49.313Z,14.60
2019-05-15T01:32:19.086Z,14.60
2019-05-15T01:34:49.035Z,14.60
2019-05-15T01:37:18.971Z,14.60
2019-05-15T01:39:48.525Z,14.50
2019-05-15T01:42:18.605Z,14.50
2019-05-15T01:44:48.445Z,14.60
2019-05-15T01:47:18.968Z,14.60
2019-05-15T01:49:49.094Z,14.60
2019-05-15T01:52:18.895Z,14.60
2019-05-15T01:54:48.912Z,14.50
2019-05-15T01:57:18.234Z,14.50
2019-05-15T01:59:57.096Z,14.50
2019-05-15T02:02:18.728Z,14.50
2019-05-15T02:04:48.709Z,14.50
2019-05-15T02:07:18.705Z,14.50
2019-05-15T02:09:49.184Z,14.40
2019-05-15T02:12:19.125Z,14.40
2019-05-15T02:14:48.634Z,14.30
2019-05-15T02:17:18.952Z,14.30
2019-05-15T02:19:48.555Z,14.30
2019-05-15T02:22:18.984Z,14.30
2019-05-15T02:24:48.315Z,14.20
2019-05-15T02:27:18.612Z,14.20
2019-05-15T02:29:49.368Z,14.20
2019-05-15T02:32:19.526Z,14.20
2019-05-15T02:34:49.999Z,14.30
2019-05-15T02:37:19.376Z,14.20
2019-05-15T02:39:49.599Z,14.30
2019-05-15T02:42:19.312Z,14.30
2019-05-15T02:44:50.025Z,14.20
2019-05-15T02:47:20.107Z,14.20
2019-05-15T02:49:49.478Z,14.20
2019-05-15T02:52:19.878Z,14.20
2019-05-15T02:54:49.778Z,14.10
2019-05-15T02:57:19.365Z,14.10
2019-05-15T02:59:49.906Z,14.10
2019-05-15T03:02:19.222Z,14.10
2019-05-15T03:04:48.717Z,14.00
2019-05-15T03:07:19.291Z,14.00
2019-05-15T03:09:49.635Z,14.00
2019-05-15T03:12:19.706Z,13.90
2019-05-15T03:14:49.401Z,13.90
2019-05-15T03:17:30.085Z,13.90
2019-05-15T03:19:59.241Z,13.90
2019-05-15T03:22:29.333Z,13.90
2019-05-15T03:24:59.237Z,13.90
2019-05-15T03:27:30.411Z,13.80
2019-05-15T03:29:59.462Z,13.90
2019-05-15T03:32:41.137Z,13.80
2019-05-15T03:35:04.591Z,13.80
2019-05-15T03:37:33.464Z,13.80
2019-05-15T03:40:00.912Z,13.80
2019-05-15T03:42:29.967Z,13.70
2019-05-15T03:44:59.676Z,13.80
2019-05-15T03:47:30.221Z,13.70
2019-05-15T03:50:00.167Z,13.70
2019-05-15T03:52:29.581Z,13.70
2019-05-15T03:54:58.932Z,13.70
2019-05-15T03:57:30.356Z,13.70
2019-05-15T03:59:59.766Z,13.70
2019-05-15T04:02:29.053Z,13.60
2019-05-15T04:05:01.614Z,13.60
2019-05-15T04:07:29.287Z,13.60
2019-05-15T04:09:58.918Z,13.60
2019-05-15T04:12:29.091Z,13.60
2019-05-15T04:14:59.611Z,13.60
2019-05-15T04:17:29.563Z,13.70
2019-05-15T04:19:59.056Z,13.60
2019-05-15T04:22:29.115Z,13.70
2019-05-15T04:24:59.510Z,13.60
2019-05-15T04:27:30.300Z,13.60
2019-05-15T04:29:59.372Z,13.70
2019-05-15T04:32:28.988Z,13.60
2019-05-15T04:34:59.315Z,13.60
2019-05-15T04:37:29.889Z,13.60
2019-05-15T04:39:59.852Z,13.60
2019-05-15T04:42:29.843Z,13.60
2019-05-15T04:44:59.741Z,13.60
2019-05-15T04:47:30.296Z,13.70
2019-05-15T04:49:59.690Z,13.70
2019-05-15T04:52:30.482Z,13.70
2019-05-15T04:54:59.944Z,13.70
2019-05-15T04:57:33.768Z,13.70
2019-05-15T04:59:59.918Z,13.80
2019-05-15T05:02:32.126Z,13.70
2019-05-15T05:04:59.505Z,13.70
2019-05-15T05:07:29.677Z,13.80
2019-05-15T05:09:59.567Z,13.80
2019-05-15T05:12:29.058Z,13.90
2019-05-15T05:14:58.807Z,13.90
2019-05-15T05:17:28.827Z,14.00
2019-05-15T05:19:58.358Z,14.00
2019-05-15T05:22:28.197Z,14.00
2019-05-15T05:24:58.447Z,14.10
2019-05-15T05:27:28.824Z,14.10
2019-05-15T05:29:58.705Z,14.00
2019-05-15T05:32:34.629Z,14.00
2019-05-15T05:34:58.944Z,14.10
2019-05-15T05:37:28.657Z,14.10
2019-05-15T05:39:57.811Z,14.20
2019-05-15T05:42:29.006Z,14.30
2019-05-15T05:44:58.242Z,14.40
2019-05-15T05:47:28.827Z,14.60
2019-05-15T05:49:58.195Z,14.90
2019-05-15T05:52:27.984Z,15.30
2019-05-15T05:54:58.105Z,15.70
2019-05-15T05:57:27.947Z,16.00
2019-05-15T05:59:58.280Z,16.20
2019-05-15T06:02:28.000Z,16.60
2019-05-15T06:04:58.236Z,16.90
2019-05-15T06:07:27.934Z,17.20
2019-05-15T06:09:58.101Z,17.50
2019-05-15T06:12:28.236Z,17.70
2019-05-15T06:14:58.081Z,17.80
2019-05-15T06:17:28.067Z,18.10
2019-05-15T06:19:58.624Z,18.40
2019-05-15T06:22:27.801Z,18.60
2019-05-15T06:24:57.918Z,18.80
2019-05-15T06:27:27.973Z,18.90
2019-05-15T06:29:57.980Z,18.90
2019-05-15T06:32:28.892Z,19.10
2019-05-15T06:34:57.911Z,19.30
2019-05-15T06:37:28.692Z,19.50
2019-05-15T06:39:58.813Z,19.70
2019-05-15T06:42:28.331Z,19.90
2019-05-15T06:44:58.865Z,19.90
2019-05-15T06:47:28.443Z,19.90
2019-05-15T06:49:58.025Z,20.10
2019-05-15T06:52:28.484Z,20.30
2019-05-15T06:54:59.297Z,20.40
2019-05-15T06:57:28.746Z,20.70
2019-05-15T06:59:58.040Z,21.00
2019-05-15T07:02:28.529Z,21.20
2019-05-15T07:04:58.362Z,21.20
2019-05-15T07:07:28.751Z,21.30
2019-05-15T07:09:58.342Z,21.50
2019-05-15T07:12:28.081Z,21.70
2019-05-15T07:14:58.170Z,22.00
2019-05-15T07:17:28.707Z,22.20
2019-05-15T07:19:59.210Z,22.30
2019-05-15T07:22:28.932Z,22.20
2019-05-15T07:24:58.345Z,22.30
2019-05-15T07:27:28.295Z,22.40
2019-05-15T07:29:58.331Z,22.50
2019-05-15T07:32:28.532Z,22.70
2019-05-15T07:34:58.031Z,22.70
2019-05-15T07:37:28.985Z,22.80
2019-05-15T07:39:59.127Z,23.00
2019-05-15T07:42:29.135Z,23.00
2019-05-15T07:44:58.958Z,23.00
2019-05-15T07:47:29.296Z,23.20
2019-05-15T07:49:58.877Z,23.20
2019-05-15T07:52:28.915Z,23.20
2019-05-15T07:54:58.403Z,23.30
2019-05-15T07:57:29.896Z,23.40
2019-05-15T07:59:58.772Z,23.50
2019-05-15T08:02:28.498Z,23.50
2019-05-15T08:04:57.885Z,23.50
2019-05-15T08:07:27.885Z,23.60
2019-05-15T08:09:59.279Z,23.50
2019-05-15T08:12:28.303Z,23.60
2019-05-15T08:14:58.232Z,23.60
2019-05-15T08:17:28.903Z,23.60
2019-05-15T08:19:58.379Z,23.50
2019-05-15T08:22:28.462Z,23.60
2019-05-15T08:24:59.142Z,23.70
2019-05-15T08:27:29.888Z,23.70
2019-05-15T08:29:58.997Z,23.70
2019-05-15T08:32:28.080Z,23.90
2019-05-15T08:34:58.682Z,23.90
2019-05-15T08:37:29.276Z,23.90
2019-05-15T08:39:59.627Z,23.90
2019-05-15T08:42:31.998Z,24.00
2019-05-15T08:44:59.759Z,24.00
2019-05-15T08:47:29.680Z,24.00
2019-05-15T08:49:58.958Z,24.10
2019-05-15T08:52:28.291Z,24.20
2019-05-15T08:54:59.125Z,24.20
2019-05-15T08:57:28.939Z,24.30
2019-05-15T08:59:58.364Z,24.30
2019-05-15T09:02:28.704Z,24.40
2019-05-15T09:04:58.198Z,24.30
2019-05-15T09:07:28.756Z,24.30
2019-05-15T09:09:58.144Z,24.20
2019-05-15T09:12:29.255Z,24.00
2019-05-15T09:14:58.232Z,23.90
2019-05-15T09:17:28.573Z,23.90
2019-05-15T09:19:58.800Z,23.90
2019-05-15T09:22:29.144Z,23.90
2019-05-15T09:24:58.994Z,23.90
2019-05-15T09:27:28.215Z,23.90
2019-05-15T09:29:59.181Z,23.90
2019-05-15T09:32:28.502Z,23.90
2019-05-15T09:34:59.341Z,23.90
2019-05-15T09:37:28.785Z,23.90
2019-05-15T09:39:58.456Z,24.00
2019-05-15T09:42:28.592Z,24.00
2019-05-15T09:44:58.331Z,24.00
2019-05-15T09:47:29.693Z,24.10
2019-05-15T09:49:58.942Z,24.10
2019-05-15T09:52:30.005Z,24.20
2019-05-15T09:54:59.288Z,24.30
2019-05-15T09:57:30.173Z,24.40
2019-05-15T09:59:59.140Z,24.50
2019-05-15T10:02:28.499Z,24.60
2019-05-15T10:05:06.194Z,24.70
2019-05-15T10:07:28.623Z,24.80
2019-05-15T10:09:57.843Z,24.90
2019-05-15T10:12:33.948Z,25.20
2019-05-15T10:14:59.218Z,25.40
2019-05-15T10:17:29.117Z,25.60
2019-05-15T10:19:58.410Z,25.80
2019-05-15T10:22:28.258Z,25.80
2019-05-15T10:24:58.729Z,25.30
2019-05-15T10:27:28.745Z,24.80
2019-05-15T10:29:58.873Z,24.30
2019-05-15T10:32:29.025Z,23.90
2019-05-15T10:34:58.676Z,23.60
2019-05-15T10:37:28.638Z,23.30
2019-05-15T10:39:58.436Z,23.10
2019-05-15T10:42:29.005Z,22.90
2019-05-15T10:44:58.935Z,22.80
2019-05-15T10:47:28.948Z,22.60
2019-05-15T10:50:00.175Z,22.50
2019-05-15T10:52:29.356Z,22.40
2019-05-15T10:55:00.801Z,22.30
2019-05-15T10:57:28.850Z,22.20
2019-05-15T10:59:58.445Z,22.10
2019-05-15T11:02:29.018Z,22.10
2019-05-15T11:04:58.361Z,22.00
2019-05-15T11:07:28.451Z,21.90
2019-05-15T11:09:58.244Z,21.90
2019-05-15T11:12:29.259Z,21.80
2019-05-15T11:14:57.982Z,21.80
2019-05-15T11:17:28.713Z,21.70
2019-05-15T11:19:58.671Z,21.70
2019-05-15T11:22:29.894Z,21.60
2019-05-15T11:24:59.451Z,21.60
2019-05-15T11:27:31.396Z,21.60
2019-05-15T11:29:59.466Z,21.50
2019-05-15T11:32:29.426Z,21.50
2019-05-15T11:34:58.582Z,21.40
2019-05-15T11:37:28.263Z,21.50
2019-05-15T11:39:58.956Z,21.30
2019-05-15T11:42:28.838Z,21.30
2019-05-15T11:44:58.516Z,21.30
2019-05-15T11:47:27.940Z,21.20
2019-05-15T11:49:58.475Z,21.20
2019-05-15T11:52:29.584Z,21.20
2019-05-15T11:54:59.130Z,21.20
2019-05-15T11:57:39.467Z,21.10
2019-05-15T11:59:59.526Z,21.10
2019-05-15T12:02:29.436Z,21.10
2019-05-15T12:04:58.659Z,21.10
2019-05-15T12:07:29.083Z,21.00
2019-05-15T12:09:58.185Z,21.00
2019-05-15T12:12:31.481Z,20.90
2019-05-15T12:14:58.131Z,20.90
2019-05-15T12:17:28.434Z,20.90
2019-05-15T12:20:05.446Z,20.90
2019-05-15T12:22:28.981Z,20.90
2019-05-15T12:25:00.433Z,20.80
2019-05-15T12:27:28.963Z,20.70
2019-05-15T12:29:59.987Z,20.80
2019-05-15T12:32:33.286Z,20.70
2019-05-15T12:35:20.499Z,20.80
2019-05-15T12:37:49.029Z,20.80
2019-05-15T13:00:26.221Z,20.70
2019-05-15T13:02:55.298Z,20.50
2019-05-15T13:05:29.063Z,20.40
2019-05-15T13:07:58.411Z,20.40
2019-05-15T13:10:28.791Z,20.50
2019-05-15T13:13:04.884Z,20.60
2019-05-15T13:15:28.752Z,20.60
2019-05-15T13:17:59.649Z,20.60
2019-05-15T13:20:28.877Z,20.60
2019-05-15T13:22:59.480Z,20.50
2019-05-15T13:25:28.933Z,20.40
2019-05-15T13:27:58.127Z,20.40
2019-05-15T13:30:29.979Z,20.50
2019-05-15T13:32:58.832Z,20.50
2019-05-15T13:35:28.485Z,20.50
2019-05-15T13:37:58.604Z,20.50
2019-05-15T13:40:37.616Z,20.40
2019-05-15T13:42:58.960Z,20.30
2019-05-15T13:45:28.937Z,20.30
2019-05-15T13:47:58.258Z,20.30
2019-05-15T13:50:28.477Z,20.20
2019-05-15T13:52:58.943Z,20.30
2019-05-15T13:55:35.787Z,20.30
2019-05-15T13:57:58.809Z,20.20
2019-05-15T14:00:28.949Z,20.30
2019-05-15T14:02:58.508Z,20.20
2019-05-15T14:05:29.732Z,20.30
2019-05-15T14:07:58.381Z,20.30
2019-05-15T14:10:28.884Z,20.20
2019-05-15T14:12:58.384Z,20.20
2019-05-15T14:15:27.576Z,20.10
2019-05-15T14:17:57.783Z,20.20
2019-05-15T14:20:28.576Z,20.30
2019-05-15T14:23:00.113Z,20.20
2019-05-15T14:25:29.033Z,20.20
2019-05-15T14:27:59.389Z,20.20
2019-05-15T14:30:29.209Z,20.20
2019-05-15T14:32:59.663Z,20.20
2019-05-15T14:35:29.230Z,20.20
2019-05-15T14:38:05.891Z,20.10
2019-05-15T14:40:29.505Z,20.20
2019-05-15T14:42:59.350Z,20.20
2019-05-15T14:45:28.460Z,20.00
2019-05-15T14:47:58.184Z,19.90
2019-05-15T14:50:28.439Z,19.90
2019-05-15T14:52:58.620Z,19.90
2019-05-15T14:55:33.276Z,19.90
2019-05-15T14:57:58.964Z,19.90
2019-05-15T15:00:33.295Z,19.90
2019-05-15T15:02:59.172Z,19.90
2019-05-15T15:05:28.495Z,19.90
2019-05-15T15:07:58.571Z,19.80
2019-05-15T15:10:29.092Z,19.80
2019-05-15T15:12:58.702Z,19.80
2019-05-15T15:15:28.755Z,19.90
2019-05-15T15:17:58.323Z,19.80
2019-05-15T15:20:28.539Z,19.80
2019-05-15T15:22:58.745Z,19.80
2019-05-15T15:25:28.059Z,19.80
2019-05-15T15:27:58.642Z,19.80
2019-05-15T15:30:29.886Z,19.70
2019-05-15T15:32:58.579Z,19.60
2019-05-15T15:35:28.887Z,19.50
2019-05-15T15:37:58.261Z,19.50
2019-05-15T15:40:28.277Z,19.50
2019-05-15T15:42:58.083Z,19.50
2019-05-15T15:45:28.394Z,19.60
2019-05-15T15:47:58.767Z,19.70
2019-05-15T15:50:28.846Z,19.70
2019-05-15T15:52:59.280Z,19.80
2019-05-15T15:55:29.141Z,19.70
2019-05-15T15:57:59.266Z,19.70
2019-05-15T16:00:28.807Z,19.80
2019-05-15T16:02:58.408Z,19.80
2019-05-15T16:05:29.126Z,19.80
2019-05-15T16:07:59.190Z,19.80
2019-05-15T16:10:28.342Z,19.80
2019-05-15T16:12:58.213Z,19.80
2019-05-15T16:15:29.145Z,19.80
2019-05-15T16:17:59.385Z,19.80
2019-05-15T16:20:28.782Z,19.80
2019-05-15T16:22:59.133Z,19.80
2019-05-15T16:25:28.843Z,19.70
2019-05-15T16:27:58.176Z,19.80
2019-05-15T16:30:28.195Z,19.80
2019-05-15T16:32:58.464Z,19.80
2019-05-15T16:35:28.963Z,19.80
2019-05-15T16:37:58.520Z,19.80
2019-05-15T16:40:28.805Z,19.80
2019-05-15T16:42:58.101Z,19.80
2019-05-15T16:45:28.896Z,19.70
2019-05-15T16:47:58.696Z,19.70
2019-05-15T16:50:28.637Z,19.80
2019-05-15T16:52:58.461Z,19.70
2019-05-15T16:55:28.611Z,19.70
2019-05-15T16:57:58.519Z,19.80
2019-05-15T17:00:29.233Z,19.80
2019-05-15T17:03:09.183Z,19.80
2019-05-15T17:05:29.298Z,19.80
2019-05-15T17:07:58.464Z,19.80
2019-05-15T17:10:28.188Z,19.80
2019-05-15T17:12:58.323Z,19.70
2019-05-15T17:15:28.084Z,19.70
2019-05-15T17:17:58.300Z,19.70
2019-05-15T17:20:28.390Z,19.70
2019-05-15T17:22:58.035Z,19.70
2019-05-15T17:25:27.418Z,19.70
2019-05-15T17:27:58.039Z,19.70
2019-05-15T17:30:28.738Z,19.70
2019-05-15T17:32:58.071Z,19.70
2019-05-15T17:35:27.776Z,19.60
2019-05-15T17:37:58.108Z,19.60
2019-05-15T17:40:28.359Z,19.50
2019-05-15T17:42:58.631Z,19.50
2019-05-15T17:45:28.466Z,19.40
2019-05-15T17:47:58.517Z,19.40
2019-05-15T17:50:28.374Z,19.40
2019-05-15T17:52:58.670Z,19.40
2019-05-15T17:55:27.932Z,19.40
2019-05-15T17:58:00.689Z,19.30
2019-05-15T18:00:28.638Z,19.30
2019-05-15T18:02:58.017Z,19.30
2019-05-15T18:05:28.286Z,19.30
2019-05-15T18:07:58.368Z,19.30
2019-05-15T18:10:29.640Z,19.30
2019-05-15T18:12:58.762Z,19.30
2019-05-15T18:15:27.819Z,19.20
2019-05-15T18:17:59.333Z,19.20
2019-05-15T18:20:29.481Z,19.20
2019-05-15T18:22:59.410Z,19.10
2019-05-15T18:25:28.632Z,19.10
2019-05-15T18:27:59.288Z,19.10
2019-05-15T18:30:28.601Z,19.10
2019-05-15T18:32:58.851Z,19.10
2019-05-15T18:35:29.264Z,19.10
2019-05-15T18:37:59.284Z,19.00
2019-05-15T18:40:28.509Z,19.00
2019-05-15T18:42:59.231Z,19.00
2019-05-15T18:45:29.128Z,18.80
2019-05-15T18:47:58.897Z,18.80
2019-05-15T18:50:28.576Z,18.80
2019-05-15T18:52:58.578Z,18.80
2019-05-15T18:55:27.856Z,18.70
2019-05-15T18:57:58.412Z,18.70
2019-05-15T19:00:29.496Z,18.70
2019-05-15T19:02:59.453Z,18.70
2019-05-15T19:05:29.116Z,18.60
2019-05-15T19:07:58.201Z,18.60
2019-05-15T19:10:28.225Z,18.60
2019-05-15T19:12:58.293Z,18.60
2019-05-15T19:15:28.673Z,18.50
2019-05-15T19:17:58.748Z,18.50
2019-05-15T19:20:28.319Z,18.60
2019-05-15T19:22:58.967Z,18.50
2019-05-15T19:25:28.733Z,18.50
2019-05-15T19:27:57.979Z,18.50
2019-05-15T19:30:28.665Z,18.40
2019-05-15T19:32:58.576Z,18.40
2019-05-15T19:35:28.188Z,18.30
2019-05-15T19:37:58.729Z,18.30
2019-05-15T19:40:28.549Z,18.30
2019-05-15T19:42:58.998Z,18.30
2019-05-15T19:45:28.471Z,18.30
2019-05-15T19:47:58.639Z,18.20
2019-05-15T19:50:28.782Z,18.20
2019-05-15T19:52:59.048Z,18.20
2019-05-15T19:55:28.518Z,18.20
2019-05-15T19:57:58.808Z,18.10
2019-05-15T20:00:28.616Z,18.10
2019-05-15T20:02:58.765Z,18.10
2019-05-15T20:05:29.279Z,18.10
2019-05-15T20:07:58.883Z,18.00
2019-05-15T20:10:40.378Z,18.10
2019-05-15T20:13:09.352Z,18.10
2019-05-15T20:15:38.299Z,18.00
2019-05-15T20:18:07.906Z,18.00
2019-05-15T20:20:38.651Z,18.00
2019-05-15T20:23:08.568Z,18.00
2019-05-15T20:25:38.307Z,18.00
2019-05-15T20:28:08.422Z,18.00
2019-05-15T20:30:38.927Z,18.00
2019-05-15T20:33:08.911Z,18.00
2019-05-15T20:35:38.600Z,18.00
2019-05-15T20:38:07.797Z,18.00
2019-05-15T20:40:36.812Z,18.00
2019-05-15T20:43:07.978Z,17.90
2019-05-15T20:45:36.390Z,17.90
2019-05-15T20:48:05.386Z,18.00
2019-05-15T20:50:34.911Z,18.00
2019-05-15T20:53:03.946Z,18.00
2019-05-15T20:55:32.906Z,17.90
2019-05-15T20:58:01.866Z,17.90
2019-05-15T21:00:30.865Z,17.90
2019-05-15T21:02:59.814Z,17.80
2019-05-15T21:05:28.978Z,17.80
2019-05-15T21:07:58.093Z,17.80
2019-05-15T21:10:27.091Z,17.80
2019-05-15T21:12:56.055Z,17.70
2019-05-15T21:15:24.975Z,17.70
2019-05-15T21:17:58.348Z,17.70
2019-05-15T21:20:28.643Z,17.70
2019-05-15T21:22:57.918Z,17.60
2019-05-15T21:25:28.542Z,17.60
2019-05-15T21:27:58.976Z,17.50
2019-05-15T21:30:29.544Z,17.50
2019-05-15T21:32:58.938Z,17.40
2019-05-15T21:35:30.401Z,17.40
2019-05-15T21:37:58.800Z,17.30
2019-05-15T21:40:28.054Z,17.30
2019-05-15T21:42:58.196Z,17.20
2019-05-15T21:45:28.890Z,17.20
2019-05-15T21:47:58.715Z,17.20
2019-05-15T21:50:28.667Z,17.20
2019-05-15T21:52:58.319Z,17.20
2019-05-15T21:55:28.868Z,17.20
2019-05-15T21:57:59.934Z,17.20
2019-05-15T22:00:38.266Z,17.10
2019-05-15T22:03:23.041Z,17.00
2019-05-15T22:05:52.071Z,17.00
2019-05-15T22:08:21.386Z,17.10
2019-05-15T22:10:51.218Z,17.00
2019-05-15T22:13:20.396Z,17.00
2019-05-15T22:15:50.173Z,17.10
2019-05-15T22:18:19.207Z,17.10
2019-05-15T22:20:48.190Z,17.10
2019-05-15T22:23:18.428Z,17.00
2019-05-15T22:25:49.720Z,16.90
2019-05-15T22:28:18.346Z,16.80
2019-05-15T22:30:47.964Z,16.80
2019-05-15T22:33:17.880Z,16.80
2019-05-15T22:35:48.788Z,16.90
2019-05-15T22:38:18.140Z,16.80
2019-05-15T22:40:48.584Z,16.70
2019-05-15T22:43:18.611Z,16.70
2019-05-15T22:45:48.280Z,16.60
2019-05-15T22:48:18.212Z,16.50
2019-05-15T22:50:47.833Z,16.50
2019-05-15T22:53:17.796Z,16.50
2019-05-15T22:55:48.395Z,16.50
2019-05-15T22:58:17.618Z,16.50
2019-05-15T23:00:49.056Z,16.40
2019-05-15T23:03:18.985Z,16.40
2019-05-15T23:05:48.057Z,16.30
2019-05-15T23:08:18.395Z,16.30
2019-05-15T23:10:48.579Z,16.30
2019-05-15T23:13:17.955Z,16.30
2019-05-15T23:15:47.713Z,16.30
2019-05-15T23:18:17.899Z,16.30
2019-05-15T23:20:47.843Z,16.30
2019-05-15T23:23:18.157Z,16.30
2019-05-15T23:25:48.537Z,16.30
2019-05-15T23:28:18.061Z,16.40
2019-05-15T23:30:48.568Z,16.40
2019-05-15T23:33:18.889Z,16.30
2019-05-15T23:35:48.537Z,16.20
2019-05-15T23:38:17.741Z,16.20
2019-05-15T23:40:48.367Z,16.10
2019-05-15T23:43:18.980Z,16.10
2019-05-15T23:45:48.439Z,16.00
2019-05-15T23:48:17.668Z,16.00
2019-05-15T23:50:48.653Z,16.00
2019-05-15T23:53:19.698Z,16.00
2019-05-15T23:55:48.166Z,15.90
2019-05-15T23:58:18.873Z,15.90
